Observation data for Jayton on 01/20/2019      Previous  Date  Next       Current Mesonet Observations  Soil Data  Daily Summary Page  Observations in Plain Language
KJTS 200600Z 09006KT M01/M07 A3033 RMK A01 T10071066  RH  064%=      5-min Rain = 0
KJTS 200605Z 08006KT M01/M07 A3034 RMK A01 T10091066  RH  065%=      5-min Rain = 0
KJTS 200610Z 08006KT M01/M07 A3034 RMK A01 T10091066  RH  065%=      5-min Rain = 0
KJTS 200615Z 08007KT M01/M07 A3034 RMK A01 T10101066  RH  065%=      5-min Rain = 0
KJTS 200620Z 08006KT M01/M07 A3034 RMK A01 T10081066  RH  065%=      5-min Rain = 0
KJTS 200625Z 10006KT M01/M07 A3033 RMK A01 T10111067  RH  066%=      5-min Rain = 0
KJTS 200630Z 12003KT M01/M07 A3034 RMK A01 T10141066  RH  068%=      5-min Rain = 0
KJTS 200635Z 14002KT M01/M07 A3034 RMK A01 T10141066  RH  068%=      5-min Rain = 0
KJTS 200640Z 11002KT M02/M07 A3034 RMK A01 T10151067  RH  068%=      5-min Rain = 0
KJTS 200645Z 11001KT M02/M07 A3034 RMK A01 T10161066  RH  069%=      5-min Rain = 0
KJTS 200650Z 12000KT M02/M07 A3035 RMK A01 T10171067  RH  068%=      5-min Rain = 0
KJTS 200655Z 00000KT M02/M07 A3035 RMK A01 T10181069  RH  068%=      5-min Rain = 0
KJTS 200700Z 12001KT M02/M07 A3035 RMK A01 T10181069  RH  068%=      5-min Rain = 0
KJTS 200705Z 12001KT M02/M07 A3035 RMK A01 T10211067  RH  071%=      5-min Rain = 0
KJTS 200710Z 13000KT M02/M07 A3034 RMK A01 T10221068  RH  071%=      5-min Rain = 0
KJTS 200715Z 15002KT M02/M07 A3034 RMK A01 T10241068  RH  072%=      5-min Rain = 0
KJTS 200720Z 14002KT M02/M07 A3036 RMK A01 T10231068  RH  071%=      5-min Rain = 0
KJTS 200725Z 12002KT M02/M07 A3034 RMK A01 T10211069  RH  070%=      5-min Rain = 0
KJTS 200730Z 15003KT M02/M07 A3034 RMK A01 T10191069  RH  068%=      5-min Rain = 0
KJTS 200735Z 16003KT M03/M07 A3034 RMK A01 T10251069  RH  072%=      5-min Rain = 0
KJTS 200740Z 15003KT M03/M07 A3034 RMK A01 T10311071  RH  074%=      5-min Rain = 0
KJTS 200745Z 14002KT M03/M07 A3034 RMK A01 T10291070  RH  073%=      5-min Rain = 0
KJTS 200750Z 13003KT M03/M07 A3034 RMK A01 T10291071  RH  073%=      5-min Rain = 0
KJTS 200755Z 13003KT M03/M07 A3034 RMK A01 T10271070  RH  072%=      5-min Rain = 0
KJTS 200800Z 11002KT M03/M07 A3034 RMK A01 T10271070  RH  073%=      5-min Rain = 0
KJTS 200805Z 11002KT M03/M07 A3034 RMK A01 T10301070  RH  074%=      5-min Rain = 0
KJTS 200810Z 11001KT M03/M07 A3034 RMK A01 T10321070  RH  076%=      5-min Rain = 0
KJTS 200815Z 11000KT M04/M07 A3034 RMK A01 T10361066  RH  080%=      5-min Rain = 0
KJTS 200820Z 11002KT M03/M07 A3034 RMK A01 T10341067  RH  078%=      5-min Rain = 0
KJTS 200825Z 11002KT M03/M07 A3034 RMK A01 T10291069  RH  074%=      5-min Rain = 0
KJTS 200830Z 11002KT M03/M07 A3034 RMK A01 T10271069  RH  073%=      5-min Rain = 0
KJTS 200835Z 11002KT M03/M07 A3034 RMK A01 T10261071  RH  071%=      5-min Rain = 0
KJTS 200840Z 11002KT M03/M07 A3034 RMK A01 T10251073  RH  070%=      5-min Rain = 0
KJTS 200845Z 11002KT M02/M08 A3034 RMK A01 T10231075  RH  067%=      5-min Rain = 0
KJTS 200850Z 11003KT M02/M08 A3034 RMK A01 T10211075  RH  066%=      5-min Rain = 0
KJTS 200855Z 10004KT M02/M08 A3034 RMK A01 T10221076  RH  067%=      5-min Rain = 0
KJTS 200900Z 10004KT M02/M08 A3034 RMK A01 T10241076  RH  068%=      5-min Rain = 0
KJTS 200905Z 09004KT M03/M08 A3034 RMK A01 T10251076  RH  068%=      5-min Rain = 0
KJTS 200910Z 10005KT M03/M08 A3034 RMK A01 T10261077  RH  068%=      5-min Rain = 0
KJTS 200915Z 11005KT M04/M08 A3034 RMK A01 T10351076  RH  073%=      5-min Rain = 0
KJTS 200920Z 11005KT M04/M07 A3034 RMK A01 T10391074  RH  077%=      5-min Rain = 0
KJTS 200925Z 11005KT M04/M07 A3034 RMK A01 T10391073  RH  077%=      5-min Rain = 0
KJTS 200930Z 11005KT M04/M07 A3034 RMK A01 T10371072  RH  076%=      5-min Rain = 0
KJTS 200935Z 11004KT M03/M07 A3034 RMK A01 T10341072  RH  075%=      5-min Rain = 0
KJTS 200940Z 11003KT M03/M07 A3034 RMK A01 T10321072  RH  074%=      5-min Rain = 0
KJTS 200945Z 13002KT M03/M07 A3034 RMK A01 T10311073  RH  072%=      5-min Rain = 0
KJTS 200950Z 14003KT M03/M08 A3034 RMK A01 T10281075  RH  070%=      5-min Rain = 0
KJTS 200955Z 13003KT M03/M08 A3034 RMK A01 T10261075  RH  069%=      5-min Rain = 0
KJTS 201000Z 13004KT M03/M08 A3034 RMK A01 T10261075  RH  069%=      5-min Rain = 0
KJTS 201005Z 13004KT M03/M08 A3034 RMK A01 T10291076  RH  070%=      5-min Rain = 0
KJTS 201010Z 13004KT M03/M08 A3034 RMK A01 T10341075  RH  073%=      5-min Rain = 0
KJTS 201015Z 13004KT M04/M08 A3034 RMK A01 T10371075  RH  075%=      5-min Rain = 0
KJTS 201020Z 14005KT M04/M07 A3034 RMK A01 T10361074  RH  075%=      5-min Rain = 0
KJTS 201025Z 15005KT M04/M07 A3034 RMK A01 T10351074  RH  074%=      5-min Rain = 0
KJTS 201030Z 17005KT M03/M07 A3034 RMK A01 T10321073  RH  074%=      5-min Rain = 0
KJTS 201035Z 17005KT M03/M07 A3034 RMK A01 T10311074  RH  072%=      5-min Rain = 0
KJTS 201040Z 17005KT M03/M08 A3034 RMK A01 T10321075  RH  072%=      5-min Rain = 0
KJTS 201045Z 18004KT M03/M08 A3034 RMK A01 T10341076  RH  073%=      5-min Rain = 0
KJTS 201050Z 17004KT M04/M08 A3034 RMK A01 T10351077  RH  073%=      5-min Rain = 0
KJTS 201055Z 18005KT M04/M08 A3033 RMK A01 T10361077  RH  073%=      5-min Rain = 0
KJTS 201100Z 19004KT M04/M08 A3033 RMK A01 T10371077  RH  074%=      5-min Rain = 0
KJTS 201105Z 19004KT M04/M08 A3032 RMK A01 T10391078  RH  074%=      5-min Rain = 0
KJTS 201110Z 20004KT M04/M08 A3032 RMK A01 T10401078  RH  075%=      5-min Rain = 0
KJTS 201115Z 19003KT M04/M08 A3032 RMK A01 T10411078  RH  076%=      5-min Rain = 0
KJTS 201120Z 19003KT M04/M08 A3032 RMK A01 T10421078  RH  076%=      5-min Rain = 0
KJTS 201125Z 20003KT M04/M08 A3032 RMK A01 T10431078  RH  076%=      5-min Rain = 0
KJTS 201130Z 20003KT M04/M08 A3031 RMK A01 T10421078  RH  076%=      5-min Rain = 0
KJTS 201135Z 21004KT M04/M08 A3031 RMK A01 T10411077  RH  076%=      5-min Rain = 0
KJTS 201140Z 21004KT M04/M08 A3031 RMK A01 T10421078  RH  076%=      5-min Rain = 0
KJTS 201145Z 20004KT M04/M08 A3031 RMK A01 T10391075  RH  076%=      5-min Rain = 0
KJTS 201150Z 21004KT M04/M08 A303 RMK A01 T10391075  RH  076%=      5-min Rain = 0
KJTS 201155Z 21004KT M04/M07 A303 RMK A01 T10391074  RH  077%=      5-min Rain = 0
KJTS 201200Z 22003KT M04/M07 A303 RMK A01 T10381073  RH  077%=      5-min Rain = 0
KJTS 201205Z 23003KT M04/M07 A3031 RMK A01 T10401074  RH  077%=      5-min Rain = 0
KJTS 201210Z 24003KT M04/M07 A3031 RMK A01 T10411073  RH  079%=      5-min Rain = 0
KJTS 201215Z 24002KT M04/M07 A3031 RMK A01 T10411072  RH  079%=      5-min Rain = 0
KJTS 201220Z 23002KT M04/M07 A3031 RMK A01 T10421071  RH  080%=      5-min Rain = 0
KJTS 201225Z 21002KT M04/M07 A3031 RMK A01 T10421071  RH  080%=      5-min Rain = 0
KJTS 201230Z 21002KT M04/M07 A3031 RMK A01 T10431071  RH  081%=      5-min Rain = 0
KJTS 201235Z 22002KT M04/M07 A3031 RMK A01 T10431070  RH  081%=      5-min Rain = 0
KJTS 201240Z 22002KT M04/M07 A3031 RMK A01 T10431071  RH  081%=      5-min Rain = 0
KJTS 201245Z 23002KT M04/M07 A303 RMK A01 T10441070  RH  082%=      5-min Rain = 0
KJTS 201250Z 22002KT M04/M07 A303 RMK A01 T10431070  RH  082%=      5-min Rain = 0
KJTS 201255Z 21003KT M04/M07 A303 RMK A01 T10441071  RH  082%=      5-min Rain = 0
KJTS 201300Z 20003KT M04/M07 A3031 RMK A01 T10431072  RH  081%=      5-min Rain = 0
KJTS 201305Z 20003KT M04/M07 A3031 RMK A01 T10421073  RH  079%=      5-min Rain = 0
KJTS 201310Z 19003KT M04/M07 A3031 RMK A01 T10401072  RH  079%=      5-min Rain = 0
KJTS 201315Z 19004KT M04/M07 A3031 RMK A01 T10411072  RH  079%=      5-min Rain = 0
KJTS 201320Z 18003KT M04/M07 A3031 RMK A01 T10431072  RH  080%=      5-min Rain = 0
KJTS 201325Z 16003KT M05/M07 A3031 RMK A01 T10461072  RH  082%=      5-min Rain = 0
KJTS 201330Z 16003KT M05/M07 A303 RMK A01 T10471071  RH  084%=      5-min Rain = 0
KJTS 201335Z 15003KT M04/M07 A303 RMK A01 T10431071  RH  081%=      5-min Rain = 0
KJTS 201340Z 14002KT M04/M07 A3031 RMK A01 T10391072  RH  078%=      5-min Rain = 0
KJTS 201345Z 14002KT M04/M07 A3031 RMK A01 T10391073  RH  077%=      5-min Rain = 0
KJTS 201350Z 14003KT M04/M07 A3031 RMK A01 T10371072  RH  077%=      5-min Rain = 0
KJTS 201355Z 13004KT M04/M07 A303 RMK A01 T10401073  RH  078%=      5-min Rain = 0
KJTS 201400Z 13004KT M04/M07 A303 RMK A01 T10431072  RH  080%=      5-min Rain = 0
KJTS 201405Z 13004KT M04/M07 A303 RMK A01 T10421071  RH  081%=      5-min Rain = 0
KJTS 201410Z 13004KT M04/M07 A303 RMK A01 T10401068  RH  080%=      5-min Rain = 0
KJTS 201415Z 14004KT M04/M07 A303 RMK A01 T10371067  RH  080%=      5-min Rain = 0
KJTS 201420Z 14004KT M03/M06 A3031 RMK A01 T10321064  RH  078%=      5-min Rain = 0
KJTS 201425Z 15004KT M03/M06 A3031 RMK A01 T10261063  RH  076%=      5-min Rain = 0
KJTS 201430Z 16004KT M02/M06 A3031 RMK A01 T10201062  RH  073%=      5-min Rain = 0
KJTS 201435Z 16004KT M02/M06 A303 RMK A01 T10161062  RH  071%=      5-min Rain = 0
KJTS 201440Z 17004KT M01/M06 A3031 RMK A01 T10141061  RH  070%=      5-min Rain = 0
KJTS 201445Z 17004KT M01/M06 A3031 RMK A01 T10131061  RH  070%=      5-min Rain = 0
KJTS 201450Z 17004KT M01/M06 A3031 RMK A01 T10131061  RH  070%=      5-min Rain = 0
KJTS 201455Z 18004KT M01/M06 A3031 RMK A01 T10131059  RH  071%=      5-min Rain = 0
KJTS 201500Z 19004KT M01/M06 A3031 RMK A01 T10131056  RH  072%=      5-min Rain = 0
KJTS 201505Z 19004KT M01/M06 A3031 RMK A01 T10121057  RH  072%=      5-min Rain = 0
KJTS 201510Z 18004KT M01/M06 A3031 RMK A01 T10081056  RH  070%=      5-min Rain = 0
KJTS 201515Z 18005KT M01/M06 A3031 RMK A01 T10061057  RH  068%=      5-min Rain = 0
KJTS 201520Z 19005KT M00/M06 A3031 RMK A01 T10031058  RH  067%=      5-min Rain = 0
KJTS 201525Z 18005KT 00/06 A3031 RMK A01 T00-00-56  RH  066%=      5-min Rain = 0
KJTS 201530Z 18005KT 01/M05 A3031 RMK A01 T00051054  RH  064%=      5-min Rain = 0
KJTS 201535Z 18006KT 01/M05 A303 RMK A01 T00101054  RH  062%=      5-min Rain = 0
KJTS 201540Z 18006KT 02/M06 A303 RMK A01 T00151055  RH  060%=      5-min Rain = 0
KJTS 201545Z 18006KT 02/M06 A303 RMK A01 T00171056  RH  059%=      5-min Rain = 0
KJTS 201550Z 19006KT 02/M06 A303 RMK A01 T00171058  RH  057%=      5-min Rain = 0
KJTS 201555Z 19006KT 02/M06 A303 RMK A01 T00211056  RH  057%=      5-min Rain = 0
KJTS 201600Z 19006KT 02/M06 A303 RMK A01 T00241057  RH  055%=      5-min Rain = 0
KJTS 201605Z 18006KT 03/M06 A303 RMK A01 T00271055  RH  055%=      5-min Rain = 0
KJTS 201610Z 17006KT 03/M05 A303 RMK A01 T00311054  RH  054%=      5-min Rain = 0
KJTS 201615Z 18007KT 03/M06 A303 RMK A01 T00331058  RH  051%=      5-min Rain = 0
KJTS 201620Z 18007KT 03/M06 A303 RMK A01 T00331060  RH  051%=      5-min Rain = 0
KJTS 201625Z 19006KT 03/M06 A303 RMK A01 T00341059  RH  050%=      5-min Rain = 0
KJTS 201630Z 19007KT 04/M06 A303 RMK A01 T00381057  RH  050%=      5-min Rain = 0
KJTS 201635Z 19007KT 04/M06 A3029 RMK A01 T00411057  RH  049%=      5-min Rain = 0
KJTS 201640Z 19007KT 04/M06 A3029 RMK A01 T00431057  RH  048%=      5-min Rain = 0
KJTS 201645Z 20006KT 05/M05 A3029 RMK A01 T00451053  RH  049%=      5-min Rain = 0
KJTS 201650Z 18006KT 05/M05 A3029 RMK A01 T00501052  RH  048%=      5-min Rain = 0
KJTS 201655Z 20006KT 05/M05 A3028 RMK A01 T00521050  RH  048%=      5-min Rain = 0
KJTS 201700Z 20006KT 06/M05 A3028 RMK A01 T00561049  RH  047%=      5-min Rain = 0
KJTS 201705Z 19006KT 07/M05 A3028 RMK A01 T00651046  RH  045%=      5-min Rain = 0
KJTS 201710Z 20008KT 07/M05 A3028 RMK A01 T00691047  RH  044%=      5-min Rain = 0
KJTS 201715Z 19010G15KT 07/M05 A3027 RMK A01 T00671049  RH  044%=      5-min Rain = 0
KJTS 201720Z 19008KT 07/M05 A3027 RMK A01 T00711046  RH  043%=      5-min Rain = 0
KJTS 201725Z 18009KT 07/M05 A3027 RMK A01 T00741046  RH  042%=      5-min Rain = 0
KJTS 201730Z 19009KT 08/M05 A3026 RMK A01 T00771045  RH  042%=      5-min Rain = 0
KJTS 201735Z 18010KT 08/M04 A3026 RMK A01 T00831043  RH  041%=      5-min Rain = 0
KJTS 201740Z 18010KT 09/M04 A3026 RMK A01 T00861042  RH  040%=      5-min Rain = 0
KJTS 201745Z 18010KT 08/M04 A3025 RMK A01 T00841041  RH  041%=      5-min Rain = 0
KJTS 201750Z 20009KT 08/M04 A3025 RMK A01 T00841041  RH  041%=      5-min Rain = 0
KJTS 201755Z 18010KT 09/M04 A3025 RMK A01 T00901037  RH  041%=      5-min Rain = 0
KJTS 201800Z 18010KT 09/M04 A3025 RMK A01 T00881038  RH  041%=      5-min Rain = 0
KJTS 201805Z 17010KT 09/M04 A3024 RMK A01 T00901036  RH  041%=      5-min Rain = 0
KJTS 201810Z 18008KT 09/M04 A3024 RMK A01 T00921036  RH  041%=      5-min Rain = 0
KJTS 201815Z 19009KT 09/M04 A3024 RMK A01 T00941035  RH  040%=      5-min Rain = 0
KJTS 201820Z 19010KT 10/M04 A3024 RMK A01 T00961035  RH  040%=      5-min Rain = 0
KJTS 201825Z 19009KT 10/M03 A3023 RMK A01 T00971033  RH  040%=      5-min Rain = 0
KJTS 201830Z 18008G14KT 10/M03 A3023 RMK A01 T01021031  RH  039%=      5-min Rain = 0
KJTS 201835Z 19010KT 11/M03 A3022 RMK A01 T01071031  RH  038%=      5-min Rain = 0
KJTS 201840Z 19010G15KT 11/M03 A3022 RMK A01 T01111030  RH  037%=      5-min Rain = 0
KJTS 201845Z 18009G14KT 12/M03 A3021 RMK A01 T01161028  RH  037%=      5-min Rain = 0
KJTS 201850Z 19010G16KT 12/M03 A3021 RMK A01 T01191029  RH  036%=      5-min Rain = 0
KJTS 201855Z 20011G16KT 12/M03 A3021 RMK A01 T01191032  RH  035%=      5-min Rain = 0
KJTS 201900Z 20012KT 12/M03 A302 RMK A01 T01201032  RH  035%=      5-min Rain = 0
KJTS 201905Z 19011KT 12/M03 A302 RMK A01 T01211032  RH  035%=      5-min Rain = 0
KJTS 201910Z 19010G16KT 12/M03 A3019 RMK A01 T01241029  RH  035%=      5-min Rain = 0
KJTS 201915Z 20010KT 12/M03 A3019 RMK A01 T01241030  RH  034%=      5-min Rain = 0
KJTS 201920Z 19009G15KT 13/M03 A3019 RMK A01 T01251030  RH  034%=      5-min Rain = 0
KJTS 201925Z 20009KT 13/M03 A3019 RMK A01 T01261029  RH  034%=      5-min Rain = 0
KJTS 201930Z 20010G15KT 13/M03 A3018 RMK A01 T01311027  RH  033%=      5-min Rain = 0
KJTS 201935Z 20010KT 13/M03 A3017 RMK A01 T01311028  RH  033%=      5-min Rain = 0
KJTS 201940Z 19008KT 13/M03 A3017 RMK A01 T01321028  RH  033%=      5-min Rain = 0
KJTS 201945Z 19008G13KT 13/M03 A3016 RMK A01 T01341027  RH  033%=      5-min Rain = 0
KJTS 201950Z 20009KT 14/M03 A3016 RMK A01 T01371026  RH  032%=      5-min Rain = 0
KJTS 201955Z 20006KT 14/M03 A3016 RMK A01 T01401026  RH  032%=      5-min Rain = 0
KJTS 202000Z 20008KT 14/M03 A3016 RMK A01 T01391028  RH  032%=      5-min Rain = 0
KJTS 202005Z 20010KT 14/M03 A3015 RMK A01 T01381029  RH  032%=      5-min Rain = 0
KJTS 202010Z 19009KT 14/M03 A3015 RMK A01 T01391029  RH  031%=      5-min Rain = 0
KJTS 202015Z 19010KT 14/M03 A3014 RMK A01 T01401028  RH  031%=      5-min Rain = 0
KJTS 202020Z 21009KT 14/M03 A3015 RMK A01 T01371028  RH  032%=      5-min Rain = 0
KJTS 202025Z 22008KT 14/M03 A3014 RMK A01 T01421026  RH  031%=      5-min Rain = 0
KJTS 202030Z 19008G13KT 14/M03 A3014 RMK A01 T01431025  RH  031%=      5-min Rain = 0
KJTS 202035Z 18008G14KT 14/M03 A3014 RMK A01 T01441026  RH  031%=      5-min Rain = 0
KJTS 202040Z 20009KT 14/M03 A3014 RMK A01 T01421025  RH  032%=      5-min Rain = 0
KJTS 202045Z 20009KT 14/M02 A3013 RMK A01 T01421024  RH  032%=      5-min Rain = 0
KJTS 202050Z 20009G15KT 15/M02 A3013 RMK A01 T01471022  RH  031%=      5-min Rain = 0
KJTS 202055Z 20008KT 14/M02 A3013 RMK A01 T01431023  RH  032%=      5-min Rain = 0
KJTS 202100Z 18009G14KT 14/M02 A3012 RMK A01 T01411023  RH  032%=      5-min Rain = 0
KJTS 202105Z 20009G14KT 14/M02 A3012 RMK A01 T01411023  RH  032%=      5-min Rain = 0
KJTS 202110Z 19009KT 14/M02 A3012 RMK A01 T01421023  RH  032%=      5-min Rain = 0
KJTS 202115Z 19009KT 15/M02 A3012 RMK A01 T01461020  RH  032%=      5-min Rain = 0
KJTS 202120Z 19008KT 15/M02 A3012 RMK A01 T01451020  RH  032%=      5-min Rain = 0
KJTS 202125Z 18008KT 15/M02 A3012 RMK A01 T01451019  RH  033%=      5-min Rain = 0
KJTS 202130Z 16008KT 14/M02 A3011 RMK A01 T01431016  RH  034%=      5-min Rain = 0
KJTS 202135Z 17008KT 14/M02 A3011 RMK A01 T01441016  RH  034%=      5-min Rain = 0
KJTS 202140Z 16008KT 15/M02 A3011 RMK A01 T01451016  RH  033%=      5-min Rain = 0
KJTS 202145Z 17009G14KT 15/M02 A3011 RMK A01 T01471015  RH  033%=      5-min Rain = 0
KJTS 202150Z 18008KT 15/M02 A301 RMK A01 T01481015  RH  033%=      5-min Rain = 0
KJTS 202155Z 17009KT 15/M01 A301 RMK A01 T01491014  RH  033%=      5-min Rain = 0
KJTS 202200Z 17008KT 15/M01 A301 RMK A01 T01531012  RH  033%=      5-min Rain = 0
KJTS 202205Z 18008G13KT 16/M01 A301 RMK A01 T01551013  RH  032%=      5-min Rain = 0
KJTS 202210Z 17008G13KT 16/M01 A301 RMK A01 T01571012  RH  032%=      5-min Rain = 0
KJTS 202215Z 18009KT 16/M01 A3009 RMK A01 T01551012  RH  032%=      5-min Rain = 0
KJTS 202220Z 16007G13KT 16/M01 A3009 RMK A01 T01561010  RH  032%=      5-min Rain = 0
KJTS 202225Z 16009KT 16/M01 A3009 RMK A01 T01601009  RH  032%=      5-min Rain = 0
KJTS 202230Z 17009KT 16/M01 A3008 RMK A01 T01611010  RH  032%=      5-min Rain = 0
KJTS 202235Z 16010G15KT 16/M01 A3008 RMK A01 T01631008  RH  031%=      5-min Rain = 0
KJTS 202240Z 16010KT 16/M01 A3008 RMK A01 T01611008  RH  032%=      5-min Rain = 0
KJTS 202245Z 15009KT 16/M01 A3008 RMK A01 T01631008  RH  032%=      5-min Rain = 0
KJTS 202250Z 16009KT 16/M01 A3008 RMK A01 T01631010  RH  031%=      5-min Rain = 0
KJTS 202255Z 18008KT 17/M01 A3008 RMK A01 T01661011  RH  030%=      5-min Rain = 0
KJTS 202300Z 17009G15KT 17/M01 A3008 RMK A01 T01651012  RH  030%=      5-min Rain = 0
KJTS 202305Z 17010KT 16/M01 A3008 RMK A01 T01641013  RH  030%=      5-min Rain = 0
KJTS 202310Z 17009KT 16/M01 A3008 RMK A01 T01631012  RH  030%=      5-min Rain = 0
KJTS 202315Z 17008KT 16/M01 A3008 RMK A01 T01641011  RH  031%=      5-min Rain = 0
KJTS 202320Z 17008KT 17/M01 A3008 RMK A01 T01651011  RH  030%=      5-min Rain = 0
KJTS 202325Z 16008KT 16/M01 A3007 RMK A01 T01641011  RH  031%=      5-min Rain = 0
KJTS 202330Z 16009KT 16/M01 A3007 RMK A01 T01621011  RH  031%=      5-min Rain = 0
KJTS 202335Z 15007KT 16/M01 A3007 RMK A01 T01571009  RH  032%=      5-min Rain = 0
KJTS 202340Z 15007KT 15/M01 A3007 RMK A01 T01531008  RH  034%=      5-min Rain = 0
KJTS 202345Z 16007KT 15/M01 A3007 RMK A01 T01491007  RH  035%=      5-min Rain = 0
KJTS 202350Z 15006KT 15/M01 A3007 RMK A01 T01451007  RH  035%=      5-min Rain = 0
KJTS 202355Z 15005KT 14/M01 A3008 RMK A01 T01391007  RH  037%=      5-min Rain = 0
KJTS 210000Z 16006KT 13/M01 A3008 RMK A01 T01341007  RH  038%=      5-min Rain = 0
KJTS 210005Z 16006KT 13/M01 A3008 RMK A01 T01301007  RH  039%=      5-min Rain = 0
KJTS 210010Z 16006KT 13/M01 A3008 RMK A01 T01271007  RH  040%=      5-min Rain = 0
KJTS 210015Z 16006KT 12/M01 A3008 RMK A01 T01231007  RH  041%=      5-min Rain = 0
KJTS 210020Z 16005KT 12/M01 A3008 RMK A01 T01191007  RH  042%=      5-min Rain = 0
KJTS 210025Z 15005KT 12/M01 A3007 RMK A01 T01151007  RH  043%=      5-min Rain = 0
KJTS 210030Z 15006KT 11/M01 A3007 RMK A01 T01121007  RH  044%=      5-min Rain = 0
KJTS 210035Z 14006KT 11/M01 A3007 RMK A01 T01091006  RH  045%=      5-min Rain = 0
KJTS 210040Z 14006KT 11/M01 A3007 RMK A01 T01051005  RH  047%=      5-min Rain = 0
KJTS 210045Z 14008KT 11/M00 A3007 RMK A01 T01061002  RH  048%=      5-min Rain = 0
KJTS 210050Z 15007KT 11/M00 A3007 RMK A01 T01101001  RH  047%=      5-min Rain = 0
KJTS 210055Z 14008KT 11/M00 A3007 RMK A01 T01091001  RH  047%=      5-min Rain = 0
KJTS 210100Z 14008KT 11/M00 A3007 RMK A01 T01071001  RH  048%=      5-min Rain = 0
KJTS 210105Z 14008KT 11/M00 A3007 RMK A01 T01051001  RH  049%=      5-min Rain = 0
KJTS 210110Z 14008KT 10/00 A3007 RMK A01 T010400-0  RH  049%=      5-min Rain = 0
KJTS 210115Z 14008KT 10/00 A3007 RMK A01 T010300-0  RH  049%=      5-min Rain = 0
KJTS 210120Z 14008KT 10/00 A3007 RMK A01 T01020000  RH  050%=      5-min Rain = 0
KJTS 210125Z 14007KT 10/00 A3007 RMK A01 T00990000  RH  051%=      5-min Rain = 0
KJTS 210130Z 14008KT 10/00 A3007 RMK A01 T00960000  RH  052%=      5-min Rain = 0
KJTS 210135Z 14007KT 09/00 A3007 RMK A01 T009400-0  RH  053%=      5-min Rain = 0
KJTS 210140Z 14007KT 09/00 A3007 RMK A01 T009100-0  RH  054%=      5-min Rain = 0
KJTS 210145Z 14007KT 09/00 A3007 RMK A01 T008900-0  RH  054%=      5-min Rain = 0
KJTS 210150Z 14007KT 09/00 A3006 RMK A01 T00890000  RH  054%=      5-min Rain = 0
KJTS 210155Z 14007KT 09/00 A3006 RMK A01 T00860000  RH  055%=      5-min Rain = 0
KJTS 210200Z 14006KT 08/M00 A3006 RMK A01 T00821001  RH  057%=      5-min Rain = 0
KJTS 210205Z 14007KT 08/M00 A3006 RMK A01 T00801001  RH  057%=      5-min Rain = 0
KJTS 210210Z 14007KT 08/00 A3006 RMK A01 T00820000  RH  057%=      5-min Rain = 0
KJTS 210215Z 15007KT 08/00 A3006 RMK A01 T00810001  RH  057%=      5-min Rain = 0
KJTS 210220Z 15007KT 08/00 A3006 RMK A01 T00810001  RH  058%=      5-min Rain = 0
KJTS 210225Z 15007KT 08/00 A3006 RMK A01 T00800002  RH  058%=      5-min Rain = 0
KJTS 210230Z 15007KT 08/00 A3005 RMK A01 T00790002  RH  059%=      5-min Rain = 0
KJTS 210235Z 15007KT 08/00 A3005 RMK A01 T00780002  RH  059%=      5-min Rain = 0
KJTS 210240Z 15006KT 08/00 A3005 RMK A01 T00760001  RH  060%=      5-min Rain = 0
KJTS 210245Z 15007KT 07/00 A3005 RMK A01 T00730001  RH  061%=      5-min Rain = 0
KJTS 210250Z 15007KT 07/00 A3005 RMK A01 T00720001  RH  061%=      5-min Rain = 0
KJTS 210255Z 16007KT 07/00 A3005 RMK A01 T00710001  RH  062%=      5-min Rain = 0
KJTS 210300Z 16008KT 07/00 A3004 RMK A01 T00730002  RH  061%=      5-min Rain = 0
KJTS 210305Z 15007KT 07/00 A3004 RMK A01 T00720002  RH  062%=      5-min Rain = 0
KJTS 210310Z 16007KT 07/00 A3004 RMK A01 T00710003  RH  063%=      5-min Rain = 0
KJTS 210315Z 16007KT 07/00 A3004 RMK A01 T00720003  RH  062%=      5-min Rain = 0
KJTS 210320Z 16007KT 07/00 A3004 RMK A01 T00730003  RH  062%=      5-min Rain = 0
KJTS 210325Z 16008KT 07/00 A3004 RMK A01 T00740004  RH  062%=      5-min Rain = 0
KJTS 210330Z 16008KT 08/00 A3003 RMK A01 T00750004  RH  061%=      5-min Rain = 0
KJTS 210335Z 16008KT 08/00 A3003 RMK A01 T00760004  RH  061%=      5-min Rain = 0
KJTS 210340Z 16008KT 08/00 A3003 RMK A01 T00750004  RH  062%=      5-min Rain = 0
KJTS 210345Z 16008KT 07/00 A3003 RMK A01 T00740004  RH  062%=      5-min Rain = 0
KJTS 210350Z 16008KT 07/00 A3003 RMK A01 T00740004  RH  062%=      5-min Rain = 0
KJTS 210355Z 16007KT 07/00 A3003 RMK A01 T00730003  RH  062%=      5-min Rain = 0
KJTS 210400Z 16007KT 07/00 A3003 RMK A01 T00700003  RH  063%=      5-min Rain = 0
KJTS 210405Z 15008KT 07/00 A3002 RMK A01 T00700003  RH  063%=      5-min Rain = 0
KJTS 210410Z 16007KT 07/00 A3002 RMK A01 T00690002  RH  063%=      5-min Rain = 0
KJTS 210415Z 15007KT 07/00 A3002 RMK A01 T00690002  RH  063%=      5-min Rain = 0
KJTS 210420Z 15007KT 07/00 A3002 RMK A01 T00680001  RH  063%=      5-min Rain = 0
KJTS 210425Z 15006KT 07/00 A3002 RMK A01 T00660000  RH  064%=      5-min Rain = 0
KJTS 210430Z 15006KT 06/00 A3002 RMK A01 T00640000  RH  064%=      5-min Rain = 0
KJTS 210435Z 15006KT 06/00 A3002 RMK A01 T00630000  RH  065%=      5-min Rain = 0
KJTS 210440Z 15006KT 06/00 A3002 RMK A01 T006200-0  RH  065%=      5-min Rain = 0
KJTS 210445Z 15005KT 06/00 A3002 RMK A01 T006100-0  RH  065%=      5-min Rain = 0
KJTS 210450Z 15006KT 06/M00 A3002 RMK A01 T00601001  RH  066%=      5-min Rain = 0
KJTS 210455Z 15005KT 06/M00 A3002 RMK A01 T00581001  RH  067%=      5-min Rain = 0
KJTS 210500Z 14006KT 06/M00 A3002 RMK A01 T00561001  RH  067%=      5-min Rain = 0
KJTS 210505Z 14006KT 06/M00 A3002 RMK A01 T00551001  RH  068%=      5-min Rain = 0
KJTS 210510Z 14006KT 05/M00 A3003 RMK A01 T00541002  RH  068%=      5-min Rain = 0
KJTS 210515Z 15006KT 06/M00 A3003 RMK A01 T00551002  RH  068%=      5-min Rain = 0
KJTS 210520Z 15006KT 06/M00 A3003 RMK A01 T00551002  RH  067%=      5-min Rain = 0
KJTS 210525Z 15006KT 06/M00 A3003 RMK A01 T00561002  RH  067%=      5-min Rain = 0
KJTS 210530Z 15007KT 06/M00 A3003 RMK A01 T00571003  RH  066%=      5-min Rain = 0
KJTS 210535Z 15006KT 06/M00 A3003 RMK A01 T00571003  RH  066%=      5-min Rain = 0
KJTS 210540Z 16006KT 06/M00 A3003 RMK A01 T00571003  RH  066%=      5-min Rain = 0
KJTS 210545Z 17006KT 06/M00 A3003 RMK A01 T00571004  RH  065%=      5-min Rain = 0
KJTS 210550Z 17006KT 06/M00 A3003 RMK A01 T00581004  RH  065%=      5-min Rain = 0
KJTS 210555Z 18006KT 06/M01 A3003 RMK A01 T00551005  RH  066%=      5-min Rain = 0

Page generated in 0.0152 seconds.